Eleftherios Venizelos International Airport

LGAV | ATH

Athens , Attica , Greece

Thursday, October 24th, 2019 | 07:52

Weather

LGAV 240420Z 35012KT CAVOK 20/05 Q1017 NOSIG

Charts

No Charts Available

Gates

204 Available

Runways

2 Available

Events

No events for this airport


New event